createdAt,value
2022-10-15T00:01:36.843Z,8.77
2022-10-15T00:04:04.068Z,9.33
2022-10-15T00:06:30.762Z,12.87
2022-10-15T00:08:57.549Z,9.70
2022-10-15T00:11:26.559Z,9.55
2022-10-15T00:13:55.158Z,10.45
2022-10-15T00:16:26.225Z,9.77
2022-10-15T00:18:58.388Z,11.43
2022-10-15T00:21:25.381Z,10.38
2022-10-15T00:23:55.977Z,12.60
2022-10-15T00:26:25.495Z,10.30
2022-10-15T00:28:53.719Z,11.97
2022-10-15T00:31:26.326Z,11.73
2022-10-15T00:33:58.086Z,12.55
2022-10-15T00:36:30.109Z,11.57
2022-10-15T00:38:57.276Z,11.93
2022-10-15T00:41:24.971Z,14.10
2022-10-15T00:43:54.385Z,13.80
2022-10-15T00:46:28.825Z,15.87
2022-10-15T00:49:25.714Z,10.80
2022-10-15T00:51:52.808Z,12.50
2022-10-15T00:54:20.685Z,11.50
2022-10-15T00:56:49.370Z,11.10
2022-10-15T00:59:18.317Z,10.80
2022-10-15T01:01:47.880Z,10.23
2022-10-15T01:04:15.124Z,11.17
2022-10-15T01:06:46.579Z,11.52
2022-10-15T01:09:16.572Z,11.43
2022-10-15T01:11:47.407Z,11.65
2022-10-15T01:14:29.416Z,12.85
2022-10-15T01:17:04.862Z,10.37
2022-10-15T01:20:05.059Z,11.50
2022-10-15T01:22:52.078Z,12.23
2022-10-15T01:25:42.957Z,11.02
2022-10-15T01:28:38.915Z,12.00
2022-10-15T01:31:36.875Z,12.65
2022-10-15T01:34:31.507Z,10.83
2022-10-15T01:37:25.941Z,8.70
2022-10-15T01:39:59.209Z,11.60
2022-10-15T01:42:34.281Z,9.98
2022-10-15T01:45:06.378Z,12.13
2022-10-15T01:47:55.511Z,11.57
2022-10-15T01:50:26.551Z,12.80
2022-10-15T01:52:57.385Z,13.07
2022-10-15T01:55:26.475Z,11.57
2022-10-15T01:57:57.454Z,13.10
2022-10-15T02:00:24.203Z,10.35
2022-10-15T02:02:50.879Z,10.75
2022-10-15T02:05:24.288Z,10.98
2022-10-15T02:08:16.033Z,9.00
2022-10-15T02:11:05.194Z,10.10
2022-10-15T02:13:50.052Z,9.30
2022-10-15T02:16:49.777Z,10.27
2022-10-15T02:19:30.562Z,10.60
2022-10-15T02:22:14.859Z,10.60
2022-10-15T02:24:44.310Z,9.63
2022-10-15T02:27:14.258Z,12.27
2022-10-15T02:29:42.663Z,9.70
2022-10-15T02:32:10.898Z,10.82
2022-10-15T02:34:39.006Z,9.63
2022-10-15T02:37:08.472Z,11.98
2022-10-15T02:39:35.347Z,10.65
2022-10-15T02:42:02.534Z,9.57
2022-10-15T02:44:29.612Z,13.55
2022-10-15T02:46:58.886Z,11.77
2022-10-15T02:49:25.667Z,10.23
2022-10-15T02:51:52.382Z,9.85
2022-10-15T02:54:19.206Z,11.20
2022-10-15T02:56:45.981Z,9.85
2022-10-15T02:59:12.628Z,9.57
2022-10-15T03:01:39.350Z,12.00
2022-10-15T03:04:06.039Z,10.13
2022-10-15T03:06:32.747Z,10.18
2022-10-15T03:08:59.509Z,8.95
2022-10-15T03:11:26.301Z,8.35
2022-10-15T03:13:52.962Z,7.82
2022-10-15T03:16:19.690Z,7.17
2022-10-15T03:18:46.459Z,7.53
2022-10-15T03:21:13.153Z,7.78
2022-10-15T03:23:39.920Z,9.50
2022-10-15T03:26:06.834Z,8.00
2022-10-15T03:28:33.586Z,7.53
2022-10-15T03:31:00.315Z,6.82
2022-10-15T03:33:27.084Z,8.40
2022-10-15T03:35:53.934Z,6.65
2022-10-15T03:38:20.947Z,7.07
2022-10-15T03:40:47.623Z,6.43
2022-10-15T03:43:14.350Z,6.97
2022-10-15T03:45:41.033Z,6.32
2022-10-15T03:48:07.709Z,6.05
2022-10-15T03:50:35.009Z,6.50
2022-10-15T03:53:05.723Z,6.05
2022-10-15T03:55:32.997Z,5.75
2022-10-15T03:57:59.885Z,5.13
2022-10-15T04:00:26.881Z,5.73
2022-10-15T04:02:53.546Z,6.13
2022-10-15T04:05:20.263Z,7.43
2022-10-15T04:07:46.928Z,5.68
2022-10-15T04:10:13.667Z,5.28
2022-10-15T04:12:40.339Z,4.78
2022-10-15T04:15:07.548Z,5.82
2022-10-15T04:17:34.228Z,4.70
2022-10-15T04:20:01.080Z,6.07
2022-10-15T04:22:27.740Z,5.32
2022-10-15T04:24:54.462Z,5.55
2022-10-15T04:27:21.165Z,5.47
2022-10-15T04:29:49.180Z,4.75
2022-10-15T04:32:16.064Z,4.50
2022-10-15T04:34:42.873Z,4.13
2022-10-15T04:37:09.597Z,4.10
2022-10-15T04:39:36.379Z,4.03
2022-10-15T04:42:03.135Z,4.20
2022-10-15T04:44:29.925Z,4.60
2022-10-15T04:46:56.658Z,4.00
2022-10-15T04:49:23.365Z,3.70
2022-10-15T04:51:50.092Z,3.92
2022-10-15T04:54:17.116Z,4.65
2022-10-15T04:56:43.911Z,4.47
2022-10-15T04:59:10.759Z,4.35
2022-10-15T05:01:37.471Z,4.97
2022-10-15T05:04:04.321Z,4.85
2022-10-15T05:06:33.182Z,4.90
2022-10-15T05:09:01.670Z,5.10
2022-10-15T05:11:28.405Z,7.25
2022-10-15T05:13:56.157Z,7.25
2022-10-15T05:16:28.656Z,7.15
2022-10-15T05:19:04.344Z,8.05
2022-10-15T05:21:31.758Z,6.68
2022-10-15T05:23:59.590Z,7.15
2022-10-15T05:26:28.745Z,7.20
2022-10-15T05:28:58.103Z,6.63
2022-10-15T05:31:27.539Z,8.55
2022-10-15T05:33:55.064Z,6.93
2022-10-15T05:36:26.007Z,6.63
2022-10-15T05:38:55.588Z,6.50
2022-10-15T05:41:22.966Z,6.80
2022-10-15T05:43:50.723Z,15.90
2022-10-15T05:46:19.019Z,17.42
2022-10-15T05:48:57.046Z,15.18
2022-10-15T05:51:25.418Z,11.52
2022-10-15T05:53:53.312Z,8.65
2022-10-15T05:56:20.136Z,6.82
2022-10-15T05:58:46.861Z,6.35
2022-10-15T06:01:14.092Z,6.63
2022-10-15T06:03:41.874Z,8.05
2022-10-15T06:06:20.757Z,5.40
2022-10-15T06:08:48.291Z,6.28
2022-10-15T06:11:15.464Z,7.93
2022-10-15T06:13:43.588Z,7.85
2022-10-15T06:16:11.325Z,7.15
2022-10-15T06:18:41.426Z,6.60
2022-10-15T06:21:09.642Z,5.85
2022-10-15T06:23:36.587Z,6.07
2022-10-15T06:26:05.376Z,5.80
2022-10-15T06:28:32.925Z,5.32
2022-10-15T06:31:00.745Z,5.50
2022-10-15T06:33:28.754Z,5.00
2022-10-15T06:35:55.818Z,4.72
2022-10-15T06:38:23.833Z,4.70
2022-10-15T06:40:50.600Z,4.18
2022-10-15T06:43:17.275Z,4.63
2022-10-15T06:45:44.914Z,4.22
2022-10-15T06:48:11.745Z,4.22
2022-10-15T06:50:39.510Z,6.03
2022-10-15T06:53:06.980Z,6.72
2022-10-15T06:55:33.874Z,7.68
2022-10-15T06:58:00.632Z,5.32
2022-10-15T07:00:27.967Z,5.28
2022-10-15T07:02:54.688Z,3.60
2022-10-15T07:05:24.103Z,3.95
2022-10-15T07:07:55.031Z,4.13
2022-10-15T07:10:22.561Z,4.43
2022-10-15T07:12:49.495Z,4.47
2022-10-15T07:15:16.824Z,4.20
2022-10-15T07:17:51.480Z,3.50
2022-10-15T07:20:21.784Z,3.38
2022-10-15T07:22:51.121Z,4.75
2022-10-15T07:25:23.822Z,3.97
2022-10-15T07:27:50.565Z,3.28
2022-10-15T07:30:17.381Z,3.45
2022-10-15T07:32:46.395Z,4.00
2022-10-15T07:35:13.363Z,6.25
2022-10-15T07:37:40.897Z,4.65
2022-10-15T07:40:08.222Z,5.18
2022-10-15T07:42:38.444Z,6.80
2022-10-15T07:45:05.612Z,5.10
2022-10-15T07:47:32.583Z,4.03
2022-10-15T07:49:59.261Z,3.95
2022-10-15T07:52:26.345Z,3.80
2022-10-15T07:54:53.342Z,3.22
2022-10-15T07:57:20.065Z,3.90
2022-10-15T07:59:46.701Z,4.22
2022-10-15T08:02:16.685Z,3.70
2022-10-15T08:04:43.759Z,3.70
2022-10-15T08:07:10.611Z,4.10
2022-10-15T08:09:37.593Z,3.00
2022-10-15T08:12:06.741Z,3.08
2022-10-15T08:14:36.957Z,2.80
2022-10-15T08:17:04.715Z,4.18
2022-10-15T08:19:31.421Z,2.08
2022-10-15T08:21:58.314Z,2.13
2022-10-15T08:24:25.345Z,2.90
2022-10-15T08:26:52.113Z,1.98
2022-10-15T08:29:18.764Z,2.20
2022-10-15T08:31:45.459Z,2.30
2022-10-15T08:34:12.209Z,1.60
2022-10-15T08:36:38.899Z,3.25
2022-10-15T08:39:07.267Z,1.60
2022-10-15T08:41:41.908Z,1.70
2022-10-15T08:44:24.948Z,1.73
2022-10-15T08:47:14.800Z,1.10
2022-10-15T08:49:49.149Z,0.90
2022-10-15T08:52:21.484Z,1.17
2022-10-15T08:54:48.444Z,1.15
2022-10-15T08:57:33.798Z,2.78
2022-10-15T09:00:16.339Z,1.23
2022-10-15T09:02:51.524Z,1.20
2022-10-15T09:05:42.082Z,0.73
2022-10-15T09:08:14.836Z,1.25
2022-10-15T09:10:49.978Z,0.85
2022-10-15T09:13:25.878Z,1.73
2022-10-15T09:16:14.776Z,2.05
2022-10-15T09:18:45.887Z,1.15
2022-10-15T09:21:14.293Z,2.65
2022-10-15T09:23:43.727Z,5.88
2022-10-15T09:26:36.296Z,1.30
2022-10-15T09:29:16.865Z,0.60
2022-10-15T09:34:33.094Z,1.10
2022-10-15T09:37:14.435Z,2.20
2022-10-15T09:39:49.717Z,1.33
2022-10-15T09:42:35.991Z,2.17
2022-10-15T09:45:10.976Z,2.05
2022-10-15T09:47:40.596Z,2.00
2022-10-15T09:50:11.123Z,2.50
2022-10-15T09:53:03.459Z,2.75
2022-10-15T09:55:42.610Z,0.68
2022-10-15T09:58:15.803Z,1.25
2022-10-15T10:01:04.331Z,1.45
2022-10-15T10:03:34.128Z,0.90
2022-10-15T10:06:04.715Z,1.45
2022-10-15T10:08:38.775Z,1.23
2022-10-15T10:11:09.378Z,0.57
2022-10-15T10:13:48.425Z,0.60
2022-10-15T10:16:17.546Z,1.30
2022-10-15T10:19:01.024Z,4.13
2022-10-15T10:21:36.317Z,2.35
2022-10-15T10:24:34.438Z,0.40
2022-10-15T10:27:02.324Z,1.10
2022-10-15T10:29:35.283Z,0.30
2022-10-15T10:32:12.847Z,0.68
2022-10-15T10:34:43.181Z,2.38
2022-10-15T10:37:11.506Z,0.30
2022-10-15T10:39:38.245Z,3.28
2022-10-15T10:42:16.671Z,0.43
2022-10-15T10:44:46.688Z,0.60
2022-10-15T10:47:20.250Z,1.38
2022-10-15T10:49:49.924Z,2.22
2022-10-15T10:52:50.882Z,0.70
2022-10-15T10:55:20.314Z,1.63
2022-10-15T10:57:56.123Z,2.92
2022-10-15T11:00:43.424Z,3.30
2022-10-15T11:03:36.991Z,2.42
2022-10-15T11:06:15.566Z,2.38
2022-10-15T11:09:02.954Z,3.35
2022-10-15T11:11:54.038Z,3.53
2022-10-15T11:14:31.572Z,0.77
2022-10-15T11:17:19.449Z,2.25
2022-10-15T11:20:21.007Z,2.08
2022-10-15T11:23:11.584Z,0.80
2022-10-15T11:25:59.430Z,2.95
2022-10-15T11:29:00.916Z,1.45
2022-10-15T11:31:49.272Z,1.55
2022-10-15T11:34:45.146Z,1.55
2022-10-15T11:37:26.987Z,2.80
2022-10-15T11:40:06.237Z,2.40
2022-10-15T11:42:46.976Z,3.65
2022-10-15T11:45:32.501Z,2.60
2022-10-15T11:48:21.148Z,2.88
2022-10-15T11:51:22.398Z,2.08
2022-10-15T11:53:59.517Z,1.10
2022-10-15T11:56:38.770Z,0.63
2022-10-15T11:59:31.157Z,1.95
2022-10-15T12:02:15.038Z,0.52
2022-10-15T12:04:56.759Z,2.17
2022-10-15T12:07:33.529Z,1.67
2022-10-15T12:10:30.983Z,1.85
2022-10-15T12:13:16.808Z,1.27
2022-10-15T12:15:50.507Z,1.92
2022-10-15T12:18:41.029Z,1.75
2022-10-15T12:21:35.156Z,0.95
2022-10-15T12:24:03.418Z,1.95
2022-10-15T12:26:33.569Z,0.60
2022-10-15T12:29:07.036Z,0.57
2022-10-15T12:31:46.712Z,0.75
2022-10-15T12:34:28.543Z,2.15
2022-10-15T12:37:05.167Z,2.25
2022-10-15T12:39:52.122Z,2.72
2022-10-15T12:42:24.016Z,1.73
2022-10-15T12:44:51.533Z,0.77
2022-10-15T12:47:49.048Z,1.77
2022-10-15T12:50:22.192Z,3.17
2022-10-15T12:53:02.478Z,0.80
2022-10-15T12:55:38.271Z,0.77
2022-10-15T12:58:32.148Z,0.60
2022-10-15T13:01:04.060Z,1.33
2022-10-15T13:03:37.875Z,2.13
2022-10-15T13:06:22.839Z,1.27
2022-10-15T13:09:04.381Z,1.40
2022-10-15T13:11:37.022Z,1.05
2022-10-15T13:14:36.730Z,3.75
2022-10-15T13:17:21.105Z,2.60
2022-10-15T13:20:09.680Z,1.55
2022-10-15T13:22:37.278Z,1.83
2022-10-15T13:25:04.586Z,3.10
2022-10-15T13:27:33.919Z,1.55
2022-10-15T13:30:12.587Z,3.25
2022-10-15T13:32:46.542Z,1.23
2022-10-15T13:35:18.036Z,1.52
2022-10-15T13:37:46.898Z,4.20
2022-10-15T13:40:28.540Z,2.92
2022-10-15T13:43:06.732Z,0.85
2022-10-15T13:45:33.907Z,0.60
2022-10-15T13:48:00.755Z,1.85
2022-10-15T13:50:33.469Z,0.65
2022-10-15T13:53:14.017Z,3.90
2022-10-15T13:55:45.998Z,2.92
2022-10-15T13:58:31.210Z,1.50
2022-10-15T14:01:23.003Z,2.33
2022-10-15T14:03:53.912Z,2.58
2022-10-15T14:06:23.606Z,1.40
2022-10-15T14:08:53.052Z,2.47
2022-10-15T14:11:20.482Z,1.83
2022-10-15T14:13:48.452Z,3.33
2022-10-15T14:16:27.570Z,3.30
2022-10-15T14:19:06.684Z,2.60
2022-10-15T14:21:34.775Z,3.55
2022-10-15T14:24:07.660Z,2.28
2022-10-15T14:26:35.082Z,4.07
2022-10-15T14:29:06.489Z,3.33
2022-10-15T14:31:40.936Z,1.13
2022-10-15T14:34:29.603Z,1.20
2022-10-15T14:36:56.529Z,3.28
2022-10-15T14:39:28.326Z,0.93
2022-10-15T14:41:59.609Z,3.15
2022-10-15T14:44:26.587Z,3.17
2022-10-15T14:47:01.927Z,3.45
2022-10-15T14:49:34.512Z,0.52
2022-10-15T14:52:08.580Z,3.97
2022-10-15T14:54:39.721Z,0.88
2022-10-15T14:57:20.975Z,2.10
2022-10-15T14:59:47.916Z,2.17
2022-10-15T15:02:16.383Z,2.25
2022-10-15T15:05:05.911Z,1.65
2022-10-15T15:07:32.819Z,2.83
2022-10-15T15:09:59.491Z,2.00
2022-10-15T15:12:28.149Z,1.35
2022-10-15T15:14:55.146Z,2.08
2022-10-15T15:17:24.987Z,4.22
2022-10-15T15:19:54.488Z,3.97
2022-10-15T15:22:28.726Z,3.22
2022-10-15T15:24:56.713Z,3.55
2022-10-15T15:27:26.057Z,1.65
2022-10-15T15:29:53.164Z,3.88
2022-10-15T15:32:20.883Z,2.20
2022-10-15T15:34:49.265Z,3.80
2022-10-15T15:37:19.011Z,1.33
2022-10-15T15:39:46.005Z,1.23
2022-10-15T15:42:17.959Z,4.68
2022-10-15T15:44:45.081Z,3.20
2022-10-15T15:47:12.016Z,2.67
2022-10-15T15:49:39.355Z,3.08
2022-10-15T15:52:14.013Z,5.55
2022-10-15T15:54:41.374Z,5.50
2022-10-15T15:57:08.162Z,8.48
2022-10-15T15:59:35.247Z,8.50
2022-10-15T16:02:02.143Z,12.45
2022-10-15T16:04:28.879Z,19.13
2022-10-15T16:06:55.623Z,17.65
2022-10-15T16:09:23.490Z,10.35
2022-10-15T16:11:51.012Z,4.43
2022-10-15T16:14:17.727Z,4.20
2022-10-15T16:16:44.541Z,1.35
2022-10-15T16:19:11.706Z,1.10
2022-10-15T16:21:38.358Z,5.00
2022-10-15T16:24:05.402Z,2.65
2022-10-15T16:26:32.993Z,2.38
2022-10-15T16:28:59.724Z,1.80
2022-10-15T16:31:33.250Z,1.38
2022-10-15T16:34:00.016Z,1.30
2022-10-15T16:36:26.746Z,1.25
2022-10-15T16:38:54.290Z,1.83
2022-10-15T16:41:21.270Z,2.15
2022-10-15T16:43:49.229Z,1.50
2022-10-15T16:46:18.503Z,3.53
2022-10-15T16:48:45.787Z,3.15
2022-10-15T16:51:15.340Z,3.53
2022-10-15T16:53:45.391Z,2.67
2022-10-15T16:56:20.676Z,3.30
2022-10-15T16:58:48.082Z,1.98
2022-10-15T17:01:20.222Z,2.22
2022-10-15T17:03:48.206Z,1.98
2022-10-15T17:06:19.642Z,2.88
2022-10-15T17:08:52.971Z,2.58
2022-10-15T17:11:21.111Z,3.75
2022-10-15T17:13:48.780Z,5.75
2022-10-15T17:16:18.540Z,5.93
2022-10-15T17:18:46.474Z,4.13
2022-10-15T17:21:20.012Z,3.38
2022-10-15T17:23:50.128Z,4.20
2022-10-15T17:26:19.571Z,3.85
2022-10-15T17:28:48.325Z,4.00
2022-10-15T17:31:18.580Z,4.90
2022-10-15T17:33:45.980Z,3.65
2022-10-15T17:36:18.712Z,3.63
2022-10-15T17:38:46.252Z,4.80
2022-10-15T17:41:19.062Z,1.80
2022-10-15T17:43:46.542Z,2.38
2022-10-15T17:46:17.185Z,3.47
2022-10-15T17:48:44.580Z,3.70
2022-10-15T17:51:15.389Z,1.75
2022-10-15T17:53:43.133Z,1.70
2022-10-15T17:56:14.000Z,2.92
2022-10-15T17:58:41.282Z,3.85
2022-10-15T18:01:27.851Z,6.20
2022-10-15T18:04:03.969Z,2.38
2022-10-15T18:06:30.806Z,3.03
2022-10-15T18:08:57.525Z,1.52
2022-10-15T18:11:27.802Z,2.67
2022-10-15T18:13:54.486Z,3.45
2022-10-15T18:16:22.226Z,1.83
2022-10-15T18:18:49.419Z,2.40
2022-10-15T18:21:18.141Z,1.58
2022-10-15T18:23:45.006Z,1.60
2022-10-15T18:26:18.712Z,0.98
2022-10-15T18:28:49.079Z,1.55
2022-10-15T18:31:16.539Z,1.27
2022-10-15T18:33:55.682Z,3.20
2022-10-15T18:36:25.466Z,3.78
2022-10-15T18:38:52.544Z,3.63
2022-10-15T18:41:20.811Z,2.40
2022-10-15T18:44:05.179Z,2.55
2022-10-15T18:46:33.907Z,4.75
2022-10-15T18:49:01.684Z,5.35
2022-10-15T18:51:29.053Z,2.00
2022-10-15T18:53:55.949Z,4.22
2022-10-15T18:56:23.121Z,4.88
2022-10-15T18:58:50.060Z,2.30
2022-10-15T19:01:34.803Z,2.00
2022-10-15T19:04:05.046Z,2.35
2022-10-15T19:06:34.921Z,2.20
2022-10-15T19:09:03.358Z,4.20
2022-10-15T19:11:30.964Z,2.47
2022-10-15T19:13:58.677Z,3.67
2022-10-15T19:16:25.557Z,2.88
2022-10-15T19:18:52.242Z,4.03
2022-10-15T19:21:19.099Z,3.70
2022-10-15T19:23:45.813Z,9.65
2022-10-15T19:26:13.714Z,3.22
2022-10-15T19:28:40.711Z,3.83
2022-10-15T19:31:10.359Z,3.50
2022-10-15T19:33:37.968Z,3.80
2022-10-15T19:36:05.128Z,5.00
2022-10-15T19:38:31.999Z,5.57
2022-10-15T19:41:02.941Z,4.05
2022-10-15T19:43:29.745Z,3.30
2022-10-15T19:45:56.431Z,2.60
2022-10-15T19:48:24.883Z,6.32
2022-10-15T19:50:51.657Z,2.40
2022-10-15T19:53:18.431Z,3.15
2022-10-15T19:55:55.689Z,2.85
2022-10-15T19:58:22.796Z,2.75
2022-10-15T20:00:50.746Z,2.28
2022-10-15T20:03:17.877Z,2.53
2022-10-15T20:05:46.840Z,2.47
2022-10-15T20:08:14.530Z,4.03
2022-10-15T20:10:47.156Z,3.05
2022-10-15T20:13:15.355Z,4.00
2022-10-15T20:15:46.532Z,3.63
2022-10-15T20:18:14.226Z,4.80
2022-10-15T20:20:43.012Z,2.53
2022-10-15T20:23:10.107Z,2.78
2022-10-15T20:25:37.850Z,2.60
2022-10-15T20:28:04.613Z,2.05
2022-10-15T20:30:31.499Z,4.32
2022-10-15T20:32:58.382Z,2.78
2022-10-15T20:35:25.075Z,2.63
2022-10-15T20:37:51.732Z,2.85
2022-10-15T20:40:18.452Z,3.25
2022-10-15T20:42:45.193Z,2.75
2022-10-15T20:45:14.632Z,3.75
2022-10-15T20:47:51.024Z,4.15
2022-10-15T20:50:22.565Z,4.22
2022-10-15T20:52:49.388Z,2.38
2022-10-15T20:55:16.247Z,4.25
2022-10-15T20:57:43.376Z,2.58
2022-10-15T21:00:11.033Z,2.65
2022-10-15T21:02:37.768Z,2.42
2022-10-15T21:05:04.762Z,4.35
2022-10-15T21:07:31.492Z,4.38
2022-10-15T21:09:58.748Z,4.00
2022-10-15T21:12:26.299Z,2.85
2022-10-15T21:14:53.344Z,3.15
2022-10-15T21:17:20.365Z,3.38
2022-10-15T21:19:50.390Z,2.50
2022-10-15T21:22:19.439Z,3.33
2022-10-15T21:24:46.337Z,4.65
2022-10-15T21:27:13.128Z,2.83
2022-10-15T21:29:39.940Z,3.30
2022-10-15T21:32:06.606Z,2.72
2022-10-15T21:34:33.348Z,3.75
2022-10-15T21:37:00.098Z,3.65
2022-10-15T21:39:26.946Z,2.88
2022-10-15T21:41:53.679Z,4.07
2022-10-15T21:44:20.389Z,2.08
2022-10-15T21:46:47.079Z,2.17
2022-10-15T21:49:14.023Z,4.30
2022-10-15T21:51:41.008Z,3.80
2022-10-15T21:54:09.071Z,2.60
2022-10-15T21:56:36.296Z,3.33
2022-10-15T21:59:03.119Z,4.28
2022-10-15T22:01:34.636Z,3.75
2022-10-15T22:04:06.589Z,3.92
2022-10-15T22:06:35.103Z,3.33
2022-10-15T22:09:02.830Z,3.75
2022-10-15T22:11:34.958Z,1.80
2022-10-15T22:14:04.730Z,3.42
2022-10-15T22:16:34.639Z,1.98
2022-10-15T22:19:01.519Z,5.90
2022-10-15T22:21:31.363Z,2.15
2022-10-15T22:24:01.439Z,2.58
2022-10-15T22:26:31.380Z,4.93
2022-10-15T22:28:59.851Z,6.20
2022-10-15T22:31:27.578Z,3.70
2022-10-15T22:33:54.891Z,4.32
2022-10-15T22:36:31.523Z,4.25
2022-10-15T22:39:01.842Z,3.53
2022-10-15T22:41:30.525Z,5.68
2022-10-15T22:43:57.181Z,3.50
2022-10-15T22:46:24.299Z,2.30
2022-10-15T22:48:51.017Z,3.47
2022-10-15T22:51:17.678Z,5.03
2022-10-15T22:53:44.364Z,5.45
2022-10-15T22:56:17.407Z,6.65
2022-10-15T22:58:44.977Z,5.38
2022-10-15T23:01:26.867Z,5.45
2022-10-15T23:03:56.751Z,3.47
2022-10-15T23:06:24.600Z,3.72
2022-10-15T23:08:51.695Z,3.88
2022-10-15T23:11:21.010Z,3.55
2022-10-15T23:13:51.820Z,2.75
2022-10-15T23:16:20.819Z,4.72
2022-10-15T23:18:51.863Z,5.13
2022-10-15T23:21:23.352Z,6.15
2022-10-15T23:23:51.798Z,2.83
2022-10-15T23:26:18.534Z,4.93
2022-10-15T23:28:51.588Z,3.45
2022-10-15T23:31:21.827Z,2.72
2022-10-15T23:33:48.588Z,2.83
2022-10-15T23:36:15.342Z,5.65
2022-10-15T23:38:42.072Z,4.88
2022-10-15T23:41:10.225Z,3.13
2022-10-15T23:43:37.504Z,3.33
2022-10-15T23:46:04.378Z,4.00
2022-10-15T23:48:31.083Z,3.35
2022-10-15T23:51:00.961Z,5.30
2022-10-15T23:53:32.882Z,4.25
2022-10-15T23:56:02.760Z,3.03
2022-10-15T23:58:32.018Z,2.83
